Time;durP1;ratioP1;P1;durP2;ratioP2;P2;SDS_P1;SDS_P2;PMS_P1;PMS_P2;Temp;Humidity;BMP_temperature;BMP_pressure;BME280_temperature;BME280_humidity;BME280_pressure;Samples;Min_cycle;Max_cycle;Signal;HPM_P1;HPM_P2
2023/09/14 00:01:56;;;;;;;5.65;2.60;;;;;;;;;;5033084;28;20041;-61
2023/09/14 00:04:22;;;;;;;7.50;3.20;;;;;;;;;;5032698;28;20056;-60
2023/09/14 00:06:49;;;;;;;10.15;3.28;;;;;;;;;;5032411;28;20030;-61
2023/09/14 00:09:15;;;;;;;7.40;3.03;;;;;;;;;;5032533;28;20041;-61
2023/09/14 00:11:41;;;;;;;7.75;3.25;;;;;;;;;;5032486;28;20132;-61
2023/09/14 00:14:07;;;;;;;5.80;2.47;;;;;;;;;;5032025;28;20076;-61
2023/09/14 00:16:33;;;;;;;6.20;2.40;;;;;;;;;;5040038;28;20041;-61
2023/09/14 00:18:59;;;;;;;3.53;2.17;;;;;;;;;;5052614;28;20041;-61
2023/09/14 00:21:25;;;;;;;4.28;2.30;;;;;;;;;;5052019;28;20041;-60
2023/09/14 00:23:51;;;;;;;3.35;2.13;;;;;;;;;;5052300;28;20047;-61
2023/09/14 00:26:17;;;;;;;3.63;1.90;;;;;;;;;;5052288;28;20514;-61
2023/09/14 00:28:43;;;;;;;4.50;2.30;;;;;;;;;;5051956;28;20532;-61
2023/09/14 00:31:08;;;;;;;8.18;2.67;;;;;;;;;;5052224;28;20033;-60
2023/09/14 00:33:34;;;;;;;4.35;2.28;;;;;;;;;;5052229;28;20033;-61
2023/09/14 00:36:00;;;;;;;5.15;2.45;;;;;;;;;;5051601;28;20041;-61
2023/09/14 00:38:26;;;;;;;3.95;2.20;;;;;;;;;;5051906;28;20043;-61
2023/09/14 00:40:52;;;;;;;6.80;2.15;;;;;;;;;;5051981;28;20067;-61
2023/09/14 00:43:19;;;;;;;5.15;2.20;;;;;;;;;;5051707;28;20044;-61
2023/09/14 00:45:45;;;;;;;6.85;2.50;;;;;;;;;;5051813;28;20049;-61
2023/09/14 00:48:11;;;;;;;6.70;2.80;;;;;;;;;;5052338;28;20151;-61
2023/09/14 00:50:38;;;;;;;5.43;2.30;;;;;;;;;;5051261;28;20516;-61
2023/09/14 00:53:08;;;;;;;5.65;2.67;;;;;;;;;;5051923;28;20049;-61
2023/09/14 00:55:34;;;;;;;5.18;2.72;;;;;;;;;;5051898;28;20041;-61
2023/09/14 00:58:00;;;;;;;5.47;2.38;;;;;;;;;;5051422;28;20484;-61
2023/09/14 01:00:27;;;;;;;4.82;2.22;;;;;;;;;;5051722;28;20112;-61
2023/09/14 01:02:58;;;;;;;5.90;2.88;;;;;;;;;;5051686;28;20518;-61
2023/09/14 01:05:28;;;;;;;4.07;2.43;;;;;;;;;;5051028;28;20493;-61
2023/09/14 01:07:54;;;;;;;7.70;3.22;;;;;;;;;;5051645;28;20491;-61
2023/09/14 01:10:20;;;;;;;6.70;2.95;;;;;;;;;;5051756;28;20040;-61
2023/09/14 01:12:47;;;;;;;4.88;2.35;;;;;;;;;;5051146;28;20550;-61
2023/09/14 01:15:15;;;;;;;3.63;2.50;;;;;;;;;;5051273;28;20073;-61
2023/09/14 01:17:43;;;;;;;5.55;2.40;;;;;;;;;;5034723;28;20117;-61
2023/09/14 01:20:30;;;;;;;7.40;2.80;;;;;;;;;;5030323;28;20083;-61
2023/09/14 01:23:00;;;;;;;4.13;2.53;;;;;;;;;;5031495;28;20419;-61
2023/09/14 01:25:46;;;;;;;4.15;2.88;;;;;;;;;;5018285;28;20044;-61
2023/09/14 01:28:13;;;;;;;3.88;2.20;;;;;;;;;;5032595;28;20075;-61
2023/09/14 01:30:39;;;;;;;4.65;2.63;;;;;;;;;;5051161;28;20497;-61
2023/09/14 01:33:09;;;;;;;6.18;2.80;;;;;;;;;;5051155;28;20040;-61
2023/09/14 01:35:39;;;;;;;5.32;2.42;;;;;;;;;;5050704;28;20106;-61
2023/09/14 01:38:06;;;;;;;5.22;2.72;;;;;;;;;;5051215;28;20084;-61
2023/09/14 01:40:33;;;;;;;9.15;2.58;;;;;;;;;;5050679;28;20131;-61
2023/09/14 01:43:00;;;;;;;5.47;2.17;;;;;;;;;;5050665;28;20041;-61
2023/09/14 01:45:26;;;;;;;4.72;2.25;;;;;;;;;;5050689;28;20041;-61
2023/09/14 01:47:53;;;;;;;4.07;2.17;;;;;;;;;;5050970;28;20041;-61
2023/09/14 01:50:19;;;;;;;4.55;1.95;;;;;;;;;;5050408;28;20582;-61
2023/09/14 01:52:46;;;;;;;4.60;1.90;;;;;;;;;;5050507;28;20045;-61
2023/09/14 01:55:13;;;;;;;5.90;1.90;;;;;;;;;;5050484;28;20053;-61
2023/09/14 01:57:39;;;;;;;5.18;2.17;;;;;;;;;;5050358;28;20076;-61
2023/09/14 02:00:05;;;;;;;4.43;2.15;;;;;;;;;;5050746;28;20479;-61
2023/09/14 02:02:31;;;;;;;3.13;1.95;;;;;;;;;;5050685;28;20249;-61
2023/09/14 02:04:57;;;;;;;7.18;2.10;;;;;;;;;;5050415;28;20404;-61
2023/09/14 02:07:23;;;;;;;3.30;1.70;;;;;;;;;;5050914;28;20122;-61
2023/09/14 02:09:50;;;;;;;3.70;1.80;;;;;;;;;;5050662;28;20040;-61
2023/09/14 02:12:17;;;;;;;6.65;1.92;;;;;;;;;;5050102;28;20037;-61
2023/09/14 02:14:43;;;;;;;4.25;1.80;;;;;;;;;;5050449;28;20449;-61
2023/09/14 02:17:09;;;;;;;2.75;1.60;;;;;;;;;;5038060;28;20075;-60
2023/09/14 02:19:35;;;;;;;1.92;1.33;;;;;;;;;;5030147;28;20376;-60
2023/09/14 02:22:01;;;;;;;4.45;1.77;;;;;;;;;;5030263;28;20138;-61
2023/09/14 02:24:26;;;;;;;3.78;1.33;;;;;;;;;;5030416;28;20041;-61
2023/09/14 02:26:54;;;;;;;2.05;1.23;;;;;;;;;;5047016;28;20037;-61
2023/09/14 02:29:20;;;;;;;1.27;1.17;;;;;;;;;;5050245;28;20052;-61
2023/09/14 02:31:46;;;;;;;2.15;1.40;;;;;;;;;;5050162;28;20483;-61
2023/09/14 02:34:12;;;;;;;2.30;1.35;;;;;;;;;;5049933;28;20052;-61
2023/09/14 02:36:38;;;;;;;2.70;1.27;;;;;;;;;;5050202;28;20145;-61
2023/09/14 02:39:05;;;;;;;2.90;1.20;;;;;;;;;;5050205;28;20343;-61
2023/09/14 02:41:31;;;;;;;2.35;1.27;;;;;;;;;;5049652;28;20037;-61
2023/09/14 02:43:57;;;;;;;1.58;1.30;;;;;;;;;;5032015;28;20040;-61
2023/09/14 02:46:23;;;;;;;1.30;1.20;;;;;;;;;;5049964;28;20052;-61
2023/09/14 02:48:49;;;;;;;1.60;1.08;;;;;;;;;;5049757;28;20041;-60
2023/09/14 02:51:15;;;;;;;3.03;1.55;;;;;;;;;;5049678;28;20060;-61
2023/09/14 02:53:42;;;;;;;4.82;1.70;;;;;;;;;;5050259;28;20037;-61
2023/09/14 02:56:12;;;;;;;4.40;1.83;;;;;;;;;;5049776;28;20049;-61
2023/09/14 02:58:38;;;;;;;1.90;1.30;;;;;;;;;;5050074;28;20295;-61
2023/09/14 03:01:10;;;;;;;1.70;1.40;;;;;;;;;;5049979;28;20048;-61
2023/09/14 03:03:39;;;;;;;3.28;1.45;;;;;;;;;;5049468;28;20433;-61
2023/09/14 03:06:06;;;;;;;3.85;1.40;;;;;;;;;;5049547;28;20119;-61
2023/09/14 03:08:32;;;;;;;3.30;1.42;;;;;;;;;;5049867;28;20032;-61
2023/09/14 03:10:58;;;;;;;2.05;1.42;;;;;;;;;;5049529;28;20045;-61
2023/09/14 03:13:24;;;;;;;2.78;1.48;;;;;;;;;;5049737;28;20372;-61
2023/09/14 03:15:54;;;;;;;3.08;1.33;;;;;;;;;;5048221;28;20076;-61
2023/09/14 03:18:20;;;;;;;1.42;0.98;;;;;;;;;;5029560;28;20045;-61
2023/09/14 03:20:46;;;;;;;2.63;1.00;;;;;;;;;;5029985;28;20064;-61
2023/09/14 03:23:12;;;;;;;2.40;1.10;;;;;;;;;;5029895;28;20038;-61
2023/09/14 03:25:38;;;;;;;2.97;1.30;;;;;;;;;;5036198;28;20048;-61
2023/09/14 03:28:04;;;;;;;2.35;1.23;;;;;;;;;;5049511;28;20494;-61
2023/09/14 03:30:30;;;;;;;2.33;1.10;;;;;;;;;;5049375;28;20033;-61
2023/09/14 03:32:56;;;;;;;3.15;1.40;;;;;;;;;;5049770;28;20064;-61
2023/09/14 03:35:22;;;;;;;1.80;1.10;;;;;;;;;;5048943;28;20041;-61
2023/09/14 03:37:49;;;;;;;4.00;1.30;;;;;;;;;;5049414;28;20083;-61
2023/09/14 03:40:16;;;;;;;2.83;1.33;;;;;;;;;;5049261;28;20045;-61
2023/09/14 03:42:42;;;;;;;3.00;1.77;;;;;;;;;;5050810;28;20539;-61
2023/09/14 03:45:08;;;;;;;4.82;1.50;;;;;;;;;;5052994;28;20040;-61
2023/09/14 03:47:34;;;;;;;3.33;1.60;;;;;;;;;;5053210;28;20037;-61
2023/09/14 03:50:00;;;;;;;2.67;1.20;;;;;;;;;;5052560;28;20060;-61
2023/09/14 03:52:26;;;;;;;3.95;1.10;;;;;;;;;;5052959;28;20045;-61
2023/09/14 03:54:52;;;;;;;2.67;1.40;;;;;;;;;;5052919;28;20411;-61
2023/09/14 03:57:19;;;;;;;3.20;1.30;;;;;;;;;;5052574;28;20391;-61
2023/09/14 03:59:46;;;;;;;3.95;1.20;;;;;;;;;;5053005;28;20048;-61
2023/09/14 04:02:12;;;;;;;2.33;1.35;;;;;;;;;;5053001;28;20106;-61
2023/09/14 04:04:41;;;;;;;4.32;1.35;;;;;;;;;;5052371;28;20036;-60
2023/09/14 04:07:08;;;;;;;2.67;1.48;;;;;;;;;;5052612;28;20051;-61
2023/09/14 04:09:34;;;;;;;4.20;1.45;;;;;;;;;;5052810;28;20059;-61
2023/09/14 04:12:00;;;;;;;2.20;1.33;;;;;;;;;;5052371;28;20471;-61
2023/09/14 04:14:26;;;;;;;3.70;1.60;;;;;;;;;;5052639;28;20063;-61
2023/09/14 04:16:56;;;;;;;2.50;1.42;;;;;;;;;;5042875;28;20091;-61
2023/09/14 04:19:22;;;;;;;3.05;1.60;;;;;;;;;;5032061;28;20037;-61
2023/09/14 04:21:48;;;;;;;3.08;1.50;;;;;;;;;;5032741;28;20045;-61
2023/09/14 04:24:14;;;;;;;2.45;1.25;;;;;;;;;;5032752;28;20046;-61
2023/09/14 04:26:40;;;;;;;1.83;1.20;;;;;;;;;;5047369;28;20090;-61
2023/09/14 04:29:06;;;;;;;2.38;1.30;;;;;;;;;;5052363;28;20041;-61
2023/09/14 04:31:32;;;;;;;3.17;1.10;;;;;;;;;;5052391;28;20052;-61
2023/09/14 04:33:58;;;;;;;2.53;1.15;;;;;;;;;;5052091;28;20091;-61
2023/09/14 04:36:25;;;;;;;3.85;1.20;;;;;;;;;;5053596;28;20037;-61
2023/09/14 04:38:51;;;;;;;1.48;0.80;;;;;;;;;;5053359;28;20049;-61
2023/09/14 04:41:17;;;;;;;0.88;0.80;;;;;;;;;;5052857;28;20638;-61
2023/09/14 04:43:43;;;;;;;3.72;1.20;;;;;;;;;;5052726;28;20076;-61
2023/09/14 04:46:09;;;;;;;1.52;1.00;;;;;;;;;;5052650;28;20138;-61
2023/09/14 04:48:38;;;;;;;1.85;0.80;;;;;;;;;;5052806;28;20045;-61
2023/09/14 04:51:04;;;;;;;1.58;0.90;;;;;;;;;;5052945;28;20057;-61
2023/09/14 04:53:30;;;;;;;2.28;1.05;;;;;;;;;;5052122;28;20422;-61
2023/09/14 04:55:56;;;;;;;1.58;1.17;;;;;;;;;;5052419;28;20079;-61
2023/09/14 04:58:22;;;;;;;1.95;0.90;;;;;;;;;;5053129;28;20048;-61
2023/09/14 05:00:49;;;;;;;2.40;1.00;;;;;;;;;;5053151;28;20129;-60
2023/09/14 05:03:15;;;;;;;1.88;1.40;;;;;;;;;;5052706;28;20053;-61
2023/09/14 05:05:42;;;;;;;1.50;1.17;;;;;;;;;;5052728;28;20511;-61
2023/09/14 05:08:08;;;;;;;2.65;1.40;;;;;;;;;;5053074;28;20040;-61
2023/09/14 05:10:36;;;;;;;2.90;1.40;;;;;;;;;;5052665;28;20036;-61
2023/09/14 05:13:02;;;;;;;2.38;1.40;;;;;;;;;;5053081;28;20051;-60
2023/09/14 05:15:28;;;;;;;3.50;1.45;;;;;;;;;;5052804;28;20120;-61
2023/09/14 05:17:55;;;;;;;4.90;1.80;;;;;;;;;;5033916;28;20037;-60
2023/09/14 05:20:21;;;;;;;2.45;1.55;;;;;;;;;;5032919;28;20400;-61
2023/09/14 05:22:47;;;;;;;1.90;1.40;;;;;;;;;;5032839;28;20045;-61
2023/09/14 05:25:14;;;;;;;2.50;1.50;;;;;;;;;;5035498;28;20037;-61
2023/09/14 05:27:41;;;;;;;1.50;1.33;;;;;;;;;;5052736;28;20365;-61
2023/09/14 05:30:11;;;;;;;2.35;1.23;;;;;;;;;;5052310;28;20041;-61
2023/09/14 05:32:38;;;;;;;4.75;1.38;;;;;;;;;;5052287;28;20048;-61
2023/09/14 05:35:06;;;;;;;3.17;1.52;;;;;;;;;;5052382;28;20079;-61
2023/09/14 05:37:32;;;;;;;3.35;1.90;;;;;;;;;;5052128;28;20060;-61
2023/09/14 05:39:58;;;;;;;5.20;1.80;;;;;;;;;;5051443;28;20044;-61
2023/09/14 05:42:24;;;;;;;1.60;1.25;;;;;;;;;;5052057;28;20044;-61
2023/09/14 05:44:50;;;;;;;2.42;1.30;;;;;;;;;;5052129;28;20172;-61
2023/09/14 05:47:16;;;;;;;3.67;1.20;;;;;;;;;;5051676;28;20175;-61
2023/09/14 05:49:43;;;;;;;1.77;1.30;;;;;;;;;;5051662;28;20056;-61
2023/09/14 05:52:09;;;;;;;5.80;1.70;;;;;;;;;;5052273;28;20048;-61
2023/09/14 05:54:36;;;;;;;3.47;1.90;;;;;;;;;;5033454;28;20447;-61
2023/09/14 05:57:03;;;;;;;3.80;1.70;;;;;;;;;;5051869;28;20107;-61
2023/09/14 05:59:29;;;;;;;9.75;2.03;;;;;;;;;;5052154;28;20048;-61
2023/09/14 06:01:55;;;;;;;4.78;1.70;;;;;;;;;;5051717;28;20041;-60
2023/09/14 06:04:21;;;;;;;6.90;2.13;;;;;;;;;;5051820;28;20052;-61
2023/09/14 06:06:47;;;;;;;4.63;1.75;;;;;;;;;;5051572;28;20041;-61
2023/09/14 06:09:13;;;;;;;4.30;2.13;;;;;;;;;;5051610;28;20039;-61
2023/09/14 06:11:40;;;;;;;4.13;2.40;;;;;;;;;;5051952;28;20045;-61
2023/09/14 06:14:06;;;;;;;4.88;2.35;;;;;;;;;;5043868;28;20077;-62
2023/09/14 06:16:32;;;;;;;6.40;2.08;;;;;;;;;;5041169;28;20040;-62
2023/09/14 06:18:58;;;;;;;3.10;1.73;;;;;;;;;;5045756;28;20052;-62
2023/09/14 06:21:24;;;;;;;3.70;1.98;;;;;;;;;;5054184;28;20029;-62
2023/09/14 06:23:50;;;;;;;7.55;2.53;;;;;;;;;;5051488;28;20399;-62
2023/09/14 06:26:16;;;;;;;3.30;1.98;;;;;;;;;;5039225;28;20537;-61
2023/09/14 06:28:42;;;;;;;3.95;2.38;;;;;;;;;;5046698;28;20079;-63
2023/09/14 06:31:08;;;;;;;7.15;2.65;;;;;;;;;;5046874;28;20435;-62
2023/09/14 06:33:34;;;;;;;7.78;3.13;;;;;;;;;;5048950;28;20037;-62
2023/09/14 06:36:00;;;;;;;5.32;2.45;;;;;;;;;;5035301;28;20415;-62
2023/09/14 06:38:26;;;;;;;6.80;2.92;;;;;;;;;;5029907;28;20408;-62
2023/09/14 06:40:52;;;;;;;5.57;2.60;;;;;;;;;;5054560;28;20044;-62
2023/09/14 06:43:18;;;;;;;5.38;2.85;;;;;;;;;;5043102;28;20079;-61
2023/09/14 06:45:45;;;;;;;7.30;2.53;;;;;;;;;;5050811;28;20084;-62
2023/09/14 06:48:11;;;;;;;5.22;3.17;;;;;;;;;;5046493;28;20491;-62
2023/09/14 06:50:37;;;;;;;4.70;2.80;;;;;;;;;;5051009;28;20060;-61
2023/09/14 06:53:03;;;;;;;3.60;2.70;;;;;;;;;;5050306;28;20037;-62
2023/09/14 06:55:29;;;;;;;4.32;2.90;;;;;;;;;;5023879;28;20045;-62
2023/09/14 06:57:55;;;;;;;4.90;2.45;;;;;;;;;;5046776;28;20041;-62
2023/09/14 07:00:21;;;;;;;5.93;2.80;;;;;;;;;;5043931;28;20475;-62
2023/09/14 07:02:48;;;;;;;4.93;2.45;;;;;;;;;;5045275;28;20048;-63
2023/09/14 07:05:14;;;;;;;5.07;2.60;;;;;;;;;;5048126;28;20056;-62
2023/09/14 07:07:41;;;;;;;4.47;2.83;;;;;;;;;;5036449;28;20170;-62
2023/09/14 07:10:07;;;;;;;7.80;3.03;;;;;;;;;;5056302;28;20048;-62
2023/09/14 07:12:35;;;;;;;5.40;2.78;;;;;;;;;;5049757;28;20131;-61
2023/09/14 07:15:01;;;;;;;7.70;2.47;;;;;;;;;;5049905;28;20040;-61
2023/09/14 07:17:27;;;;;;;6.53;3.33;;;;;;;;;;5019995;28;20510;-60
2023/09/14 07:19:53;;;;;;;7.25;3.33;;;;;;;;;;5051730;28;20041;-60
2023/09/14 07:22:19;;;;;;;8.57;3.40;;;;;;;;;;5044693;28;20048;-61
2023/09/14 07:24:46;;;;;;;12.02;4.43;;;;;;;;;;5052969;28;20045;-60
2023/09/14 07:27:13;;;;;;;8.02;3.03;;;;;;;;;;5052412;28;20037;-60
2023/09/14 07:29:39;;;;;;;5.65;3.50;;;;;;;;;;5042798;28;20411;-61
2023/09/14 07:32:05;;;;;;;7.53;3.53;;;;;;;;;;5045719;28;20048;-60
2023/09/14 07:34:31;;;;;;;9.00;3.67;;;;;;;;;;5064007;28;20044;-61
2023/09/14 07:36:57;;;;;;;8.85;3.10;;;;;;;;;;5062931;28;20068;-59
2023/09/14 07:39:23;;;;;;;6.55;3.88;;;;;;;;;;5065822;28;20045;-60
2023/09/14 07:41:55;;;;;;;11.43;4.50;;;;;;;;;;5055076;28;20047;-61
2023/09/14 07:44:21;;;;;;;9.10;3.53;;;;;;;;;;5054802;28;20506;-60
2023/09/14 07:46:47;;;;;;;9.43;3.15;;;;;;;;;;5070560;28;20497;-60
2023/09/14 07:49:13;;;;;;;6.80;2.95;;;;;;;;;;5071356;28;20123;-60
2023/09/14 07:51:39;;;;;;;11.40;2.58;;;;;;;;;;5073625;28;20123;-60
2023/09/14 07:54:05;;;;;;;9.23;2.58;;;;;;;;;;5067439;28;20116;-60
2023/09/14 07:56:31;;;;;;;9.68;3.33;;;;;;;;;;5047930;28;20111;-60
2023/09/14 07:58:57;;;;;;;10.57;2.22;;;;;;;;;;5062090;28;20463;-60
2023/09/14 08:01:23;;;;;;;9.68;4.07;;;;;;;;;;5061577;28;20040;-60
2023/09/14 08:03:50;;;;;;;9.75;2.63;;;;;;;;;;5035542;28;20036;-60
2023/09/14 08:06:18;;;;;;;12.43;2.83;;;;;;;;;;5058898;28;20044;-58
2023/09/14 08:08:45;;;;;;;10.82;3.42;;;;;;;;;;5069202;28;20040;-58
2023/09/14 08:11:11;;;;;;;6.13;1.88;;;;;;;;;;5035649;28;20037;-60
2023/09/14 08:13:38;;;;;;;10.48;3.13;;;;;;;;;;5051978;28;20637;-60
2023/09/14 08:16:04;;;;;;;8.43;2.78;;;;;;;;;;5050185;28;20089;-58
2023/09/14 08:18:30;;;;;;;5.40;2.65;;;;;;;;;;5048475;28;20041;-60
2023/09/14 08:20:56;;;;;;;10.68;2.63;;;;;;;;;;5047158;28;20684;-61
2023/09/14 08:23:22;;;;;;;9.40;2.70;;;;;;;;;;5069196;28;20102;-59
2023/09/14 08:25:48;;;;;;;9.45;2.53;;;;;;;;;;5042965;28;20104;-60
2023/09/14 08:28:15;;;;;;;10.73;3.13;;;;;;;;;;5051784;28;20569;-60
2023/09/14 08:30:41;;;;;;;6.20;2.85;;;;;;;;;;5061893;28;20036;-59
2023/09/14 08:33:08;;;;;;;8.23;2.83;;;;;;;;;;5072466;28;20040;-59
2023/09/14 08:35:35;;;;;;;11.88;3.55;;;;;;;;;;5072105;28;20048;-60
2023/09/14 08:38:03;;;;;;;12.32;3.63;;;;;;;;;;5059900;28;20056;-60
2023/09/14 08:40:29;;;;;;;7.45;2.53;;;;;;;;;;5046396;28;20041;-60
2023/09/14 08:42:56;;;;;;;11.43;3.20;;;;;;;;;;5050400;28;20032;-60
2023/09/14 08:45:32;;;;;;;9.57;2.60;;;;;;;;;;5062832;28;20090;-60
2023/09/14 08:47:58;;;;;;;9.23;2.75;;;;;;;;;;5036168;28;20107;-59
2023/09/14 08:50:31;;;;;;;8.43;2.95;;;;;;;;;;5049167;28;20049;-60
2023/09/14 08:52:58;;;;;;;8.43;3.00;;;;;;;;;;5041560;28;20037;-60
2023/09/14 08:55:25;;;;;;;15.10;3.33;;;;;;;;;;5043306;28;20132;-60
2023/09/14 08:57:52;;;;;;;11.13;2.42;;;;;;;;;;5037556;28;20494;-61
2023/09/14 09:00:19;;;;;;;9.43;2.70;;;;;;;;;;5048102;28;20117;-60
2023/09/14 09:02:46;;;;;;;7.43;2.63;;;;;;;;;;5053377;28;20060;-60
2023/09/14 09:05:12;;;;;;;6.82;3.08;;;;;;;;;;5064756;28;20438;-58
2023/09/14 09:07:42;;;;;;;10.25;3.30;;;;;;;;;;5042528;28;20037;-60
2023/09/14 09:10:10;;;;;;;7.63;2.75;;;;;;;;;;5057456;28;20398;-60
2023/09/14 09:12:37;;;;;;;11.77;2.95;;;;;;;;;;5065464;28;20040;-61
2023/09/14 09:15:03;;;;;;;9.18;2.78;;;;;;;;;;5039422;28;20422;-60
2023/09/14 09:17:38;;;;;;;9.68;2.95;;;;;;;;;;5046946;28;20045;-60
2023/09/14 09:20:11;;;;;;;5.93;2.13;;;;;;;;;;5032732;28;20060;-60
2023/09/14 09:22:39;;;;;;;10.20;2.22;;;;;;;;;;5050148;28;20431;-59
2023/09/14 09:25:06;;;;;;;8.68;1.88;;;;;;;;;;5059346;28;20088;-60
2023/09/14 09:27:32;;;;;;;10.70;2.10;;;;;;;;;;5051437;28;20132;-60
2023/09/14 09:29:58;;;;;;;8.40;1.98;;;;;;;;;;5055255;28;20037;-60
2023/09/14 09:32:24;;;;;;;8.02;1.90;;;;;;;;;;5042077;28;20468;-59
2023/09/14 09:34:50;;;;;;;6.88;1.90;;;;;;;;;;5060276;28;20037;-60
2023/09/14 09:37:17;;;;;;;6.63;1.77;;;;;;;;;;5070654;28;20052;-60
2023/09/14 09:39:44;;;;;;;10.45;1.92;;;;;;;;;;5044369;28;20050;-60
2023/09/14 09:42:13;;;;;;;9.07;2.15;;;;;;;;;;5061436;28;20554;-60
2023/09/14 09:44:42;;;;;;;8.27;2.47;;;;;;;;;;5050117;28;20033;-59
2023/09/14 09:47:12;;;;;;;4.60;2.03;;;;;;;;;;5043917;28;20614;-60
2023/09/14 09:49:39;;;;;;;7.57;2.10;;;;;;;;;;5046427;28;20056;-60
2023/09/14 09:52:10;;;;;;;5.85;2.00;;;;;;;;;;5052369;28;20051;-59
2023/09/14 09:54:36;;;;;;;8.43;1.90;;;;;;;;;;5045988;28;20468;-59
2023/09/14 09:57:04;;;;;;;10.90;3.10;;;;;;;;;;5040851;28;20429;-59
2023/09/14 09:59:30;;;;;;;6.85;2.20;;;;;;;;;;5047309;28;20079;-61
2023/09/14 10:01:57;;;;;;;6.57;1.67;;;;;;;;;;5047697;28;20045;-60
2023/09/14 10:04:27;;;;;;;5.53;1.40;;;;;;;;;;5040586;28;20550;-60
2023/09/14 10:06:59;;;;;;;7.72;1.88;;;;;;;;;;5068622;28;20045;-60
2023/09/14 10:09:26;;;;;;;;;;;;;;;;;;5053774;28;20044;-59
2023/09/14 10:11:52;;;;;;;8.32;2.20;;;;;;;;;;5068900;28;19920;-59
2023/09/14 10:14:20;;;;;;;6.10;1.70;;;;;;;;;;5050952;28;20037;-60
2023/09/14 10:16:48;;;;;;;6.10;1.85;;;;;;;;;;5049065;28;20041;-60
2023/09/14 10:19:15;;;;;;;7.25;2.08;;;;;;;;;;5044381;28;20037;-60
2023/09/14 10:21:43;;;;;;;7.30;1.83;;;;;;;;;;5061757;28;20036;-60
2023/09/14 10:24:09;;;;;;;11.13;1.88;;;;;;;;;;5043131;28;20075;-61
2023/09/14 10:26:39;;;;;;;6.65;1.75;;;;;;;;;;5043063;28;20634;-60
2023/09/14 10:29:08;;;;;;;5.00;1.60;;;;;;;;;;5061005;28;20123;-60
2023/09/14 10:31:35;;;;;;;6.35;1.90;;;;;;;;;;5038675;28;20037;-60
2023/09/14 10:34:02;;;;;;;9.20;2.15;;;;;;;;;;5044656;28;20037;-59
2023/09/14 10:36:32;;;;;;;8.77;2.00;;;;;;;;;;5052094;28;20044;-61
2023/09/14 10:39:05;;;;;;;5.95;1.80;;;;;;;;;;5070623;28;20126;-60
2023/09/14 10:41:31;;;;;;;7.45;2.28;;;;;;;;;;5045313;28;20065;-60
2023/09/14 10:43:58;;;;;;;5.00;2.10;;;;;;;;;;5048097;28;20110;-60
2023/09/14 10:46:26;;;;;;;8.20;2.10;;;;;;;;;;5069215;28;20782;-60
2023/09/14 10:48:53;;;;;;;8.38;2.28;;;;;;;;;;5070324;28;20047;-60
2023/09/14 10:51:21;;;;;;;7.10;2.45;;;;;;;;;;5058267;28;20052;-59
2023/09/14 10:53:47;;;;;;;7.05;2.17;;;;;;;;;;5067593;28;20033;-60
2023/09/14 10:56:22;;;;;;;9.68;1.90;;;;;;;;;;5071059;28;20492;-60
2023/09/14 10:58:52;;;;;;;7.65;2.08;;;;;;;;;;5036289;28;20124;-60
2023/09/14 11:01:25;;;;;;;12.50;2.20;;;;;;;;;;5052384;28;20045;-59
2023/09/14 11:04:11;;;;;;;5.35;1.70;;;;;;;;;;5069087;28;20102;-60
2023/09/14 11:06:43;;;;;;;6.65;2.03;;;;;;;;;;5050378;28;20109;-60
2023/09/14 11:09:09;;;;;;;;;;;;;;;;;;5052130;28;20052;-58
2023/09/14 11:11:39;;;;;;;8.70;1.90;;;;;;;;;;5065002;28;19917;-60
2023/09/14 11:14:08;;;;;;;7.18;1.98;;;;;;;;;;5043745;28;20045;-60
2023/09/14 11:16:52;;;;;;;6.82;1.90;;;;;;;;;;5053981;28;20101;-60
2023/09/14 11:19:34;;;;;;;8.43;2.25;;;;;;;;;;5058414;28;20090;-59
2023/09/14 11:22:04;;;;;;;7.35;2.20;;;;;;;;;;5052808;28;20127;-59
2023/09/14 11:24:34;;;;;;;7.82;2.00;;;;;;;;;;5048537;28;20396;-68
2023/09/14 11:27:00;;;;;;;7.45;1.95;;;;;;;;;;5054718;28;20047;-66
2023/09/14 11:29:26;;;;;;;6.95;2.10;;;;;;;;;;5055413;28;20033;-66
2023/09/14 11:31:56;;;;;;;4.90;1.95;;;;;;;;;;5044457;28;20455;-67
2023/09/14 11:34:24;;;;;;;7.25;2.25;;;;;;;;;;5059968;28;20045;-68
2023/09/14 11:36:52;;;;;;;7.78;2.05;;;;;;;;;;5054668;28;20102;-67
2023/09/14 11:39:19;;;;;;;5.03;1.80;;;;;;;;;;5063199;28;20033;-67
2023/09/14 11:41:48;;;;;;;9.13;2.20;;;;;;;;;;5050534;28;20036;-67
2023/09/14 11:44:14;;;;;;;6.60;2.28;;;;;;;;;;5067760;28;20044;-67
2023/09/14 11:46:41;;;;;;;8.93;2.53;;;;;;;;;;5066890;28;20068;-68
2023/09/14 11:49:08;;;;;;;7.70;2.00;;;;;;;;;;5045937;28;20394;-68
2023/09/14 11:51:34;;;;;;;7.50;2.15;;;;;;;;;;5042727;28;20064;-66
2023/09/14 11:54:00;;;;;;;5.68;2.15;;;;;;;;;;5053064;28;20045;-67
2023/09/14 11:56:31;;;;;;;6.57;2.30;;;;;;;;;;5060998;28;20056;-67
2023/09/14 11:59:00;;;;;;;6.93;1.98;;;;;;;;;;5064293;28;20055;-67
2023/09/14 12:01:31;;;;;;;6.03;2.25;;;;;;;;;;5049626;28;20037;-66
2023/09/14 12:03:58;;;;;;;7.85;2.47;;;;;;;;;;5031101;28;20044;-68
2023/09/14 12:06:27;;;;;;;8.70;2.35;;;;;;;;;;5072612;28;20080;-68
2023/09/14 12:08:53;;;;;;;4.97;1.83;;;;;;;;;;5055184;28;20115;-69
2023/09/14 12:11:22;;;;;;;3.10;1.85;;;;;;;;;;5045547;28;20040;-69
2023/09/14 12:13:51;;;;;;;6.88;1.92;;;;;;;;;;5064172;28;20044;-67
2023/09/14 12:16:21;;;;;;;9.57;2.55;;;;;;;;;;5049699;28;20037;-67
2023/09/14 12:18:47;;;;;;;6.60;2.60;;;;;;;;;;5071809;28;20049;-67
2023/09/14 12:21:13;;;;;;;6.95;2.30;;;;;;;;;;5044700;28;20079;-67
2023/09/14 12:23:41;;;;;;;7.55;1.85;;;;;;;;;;5054234;28;20139;-67
2023/09/14 12:26:08;;;;;;;9.07;2.92;;;;;;;;;;5051472;28;20403;-67
2023/09/14 12:28:34;;;;;;;7.30;2.25;;;;;;;;;;5063659;28;20047;-68
2023/09/14 12:31:01;;;;;;;7.68;2.10;;;;;;;;;;5051948;28;20101;-67
2023/09/14 12:33:27;;;;;;;7.32;2.15;;;;;;;;;;5047932;28;20040;-66
2023/09/14 12:35:53;;;;;;;5.88;2.08;;;;;;;;;;5031847;28;20056;-66
2023/09/14 12:38:19;;;;;;;4.90;2.03;;;;;;;;;;5026216;28;20045;-68
2023/09/14 12:40:46;;;;;;;9.52;2.70;;;;;;;;;;5066048;28;20121;-67
2023/09/14 12:43:13;;;;;;;9.95;2.35;;;;;;;;;;5071530;28;20075;-69
2023/09/14 12:45:40;;;;;;;7.72;2.22;;;;;;;;;;5053732;28;20118;-68
2023/09/14 12:48:07;;;;;;;6.10;2.30;;;;;;;;;;5054005;28;20044;-67
2023/09/14 12:50:34;;;;;;;6.10;2.65;;;;;;;;;;5029162;28;20061;-68
2023/09/14 12:53:07;;;;;;;5.22;2.75;;;;;;;;;;5046980;28;20123;-68
2023/09/14 12:55:37;;;;;;;6.88;2.22;;;;;;;;;;5029915;28;20050;-67
2023/09/14 12:58:04;;;;;;;6.25;2.47;;;;;;;;;;5040458;28;20048;-66
2023/09/14 13:00:33;;;;;;;8.98;2.33;;;;;;;;;;5047376;28;20096;-66
2023/09/14 13:02:59;;;;;;;10.40;2.70;;;;;;;;;;5048720;28;20060;-67
2023/09/14 13:05:27;;;;;;;6.82;2.33;;;;;;;;;;5071416;28;20046;-68
2023/09/14 13:07:59;;;;;;;6.13;2.45;;;;;;;;;;5071533;28;20056;-65
2023/09/14 13:10:30;;;;;;;6.72;2.47;;;;;;;;;;5057944;28;20040;-65
2023/09/14 13:13:06;;;;;;;5.47;2.45;;;;;;;;;;5061957;28;20043;-66
2023/09/14 13:15:33;;;;;;;7.20;2.53;;;;;;;;;;5055845;28;20510;-65
2023/09/14 13:18:00;;;;;;;7.72;2.38;;;;;;;;;;5049998;28;20173;-66
2023/09/14 13:20:30;;;;;;;7.03;2.75;;;;;;;;;;5047582;28;20466;-67
2023/09/14 13:22:57;;;;;;;6.00;2.60;;;;;;;;;;5045891;28;20048;-68
2023/09/14 13:25:26;;;;;;;10.35;2.58;;;;;;;;;;5043255;28;20059;-66
2023/09/14 13:27:56;;;;;;;9.00;2.67;;;;;;;;;;5034690;28;20041;-68
2023/09/14 13:30:23;;;;;;;6.70;2.53;;;;;;;;;;5051540;28;20041;-66
2023/09/14 13:32:50;;;;;;;10.32;2.72;;;;;;;;;;5048936;28;20048;-67
2023/09/14 13:35:20;;;;;;;4.97;2.30;;;;;;;;;;5053208;28;20119;-65
2023/09/14 13:37:49;;;;;;;6.57;2.30;;;;;;;;;;5035589;28;20052;-65
2023/09/14 13:42:44;;;;;;;7.07;2.08;;;;;;;;;;5053861;28;20057;-65
2023/09/14 13:45:10;;;;;;;5.55;2.17;;;;;;;;;;5069756;28;20517;-65
2023/09/14 13:47:36;;;;;;;7.22;2.00;;;;;;;;;;5062529;28;20044;-64
2023/09/14 13:50:04;;;;;;;5.60;2.50;;;;;;;;;;5052264;28;20141;-64
2023/09/14 13:52:31;;;;;;;5.03;2.30;;;;;;;;;;5051796;28;20368;-64
2023/09/14 13:54:57;;;;;;;4.03;2.22;;;;;;;;;;5004005;28;20095;-64
2023/09/14 13:57:23;;;;;;;8.57;3.22;;;;;;;;;;5041020;28;20063;-65
2023/09/14 13:59:49;;;;;;;8.95;2.40;;;;;;;;;;5066421;28;20174;-64
2023/09/14 14:02:16;;;;;;;10.95;2.78;;;;;;;;;;5040981;28;20077;-65
2023/09/14 14:04:42;;;;;;;5.43;2.75;;;;;;;;;;5032095;28;20482;-63
2023/09/14 14:07:10;;;;;;;6.95;2.50;;;;;;;;;;5061326;28;20048;-64
2023/09/14 14:09:36;;;;;;;6.82;2.50;;;;;;;;;;5068297;28;20068;-64
2023/09/14 14:12:04;;;;;;;6.82;2.47;;;;;;;;;;5064425;28;20072;-63
2023/09/14 14:14:30;;;;;;;6.93;2.55;;;;;;;;;;5052485;28;20044;-64
2023/09/14 14:16:57;;;;;;;5.35;2.60;;;;;;;;;;5059191;28;20122;-63
2023/09/14 14:19:23;;;;;;;7.00;2.53;;;;;;;;;;5041063;28;20498;-63
2023/09/14 14:21:49;;;;;;;7.57;2.33;;;;;;;;;;5056138;28;20128;-64
2023/09/14 14:24:15;;;;;;;5.13;2.35;;;;;;;;;;5046807;28;20048;-64
2023/09/14 14:26:42;;;;;;;5.45;2.70;;;;;;;;;;5036992;28;20041;-64
2023/09/14 14:29:09;;;;;;;8.75;2.33;;;;;;;;;;5035327;28;20045;-63
2023/09/14 14:31:35;;;;;;;5.28;2.53;;;;;;;;;;5052529;28;20530;-66
2023/09/14 14:34:02;;;;;;;10.20;2.58;;;;;;;;;;5018301;28;20415;-64
2023/09/14 14:36:29;;;;;;;5.55;2.42;;;;;;;;;;5051575;28;20074;-64
2023/09/14 14:38:55;;;;;;;8.27;2.50;;;;;;;;;;5056710;28;20559;-66
2023/09/14 14:41:21;;;;;;;8.23;2.60;;;;;;;;;;5041767;28;20040;-63
2023/09/14 14:43:47;;;;;;;6.55;2.75;;;;;;;;;;5030989;28;20095;-63
2023/09/14 14:46:14;;;;;;;7.57;2.70;;;;;;;;;;5031387;28;20044;-63